sensor_id;sensor_type;location;lat;lon;timestamp;temperature;humidity
2012;DHT22;1009;51.436;6.972;2023-06-04T00:02:20;14.80;94.20
2012;DHT22;1009;51.436;6.972;2023-06-04T00:04:46;14.70;98.40
2012;DHT22;1009;51.436;6.972;2023-06-04T00:07:15;14.70;98.20
2012;DHT22;1009;51.436;6.972;2023-06-04T00:09:41;14.60;99.60
2012;DHT22;1009;51.436;6.972;2023-06-04T00:12:09;14.50;99.90
2012;DHT22;1009;51.436;6.972;2023-06-04T00:14:36;14.40;99.90
2012;DHT22;1009;51.436;6.972;2023-06-04T00:17:03;14.20;99.90
2012;DHT22;1009;51.436;6.972;2023-06-04T00:19:30;14.10;99.90
2012;DHT22;1009;51.436;6.972;2023-06-04T00:21:56;14.10;99.90
2012;DHT22;1009;51.436;6.972;2023-06-04T00:24:24;14.00;99.90
2012;DHT22;1009;51.436;6.972;2023-06-04T00:26:54;14.00;99.90
2012;DHT22;1009;51.436;6.972;2023-06-04T00:29:20;14.00;99.90
2012;DHT22;1009;51.436;6.972;2023-06-04T00:31:47;14.00;99.90
2012;DHT22;1009;51.436;6.972;2023-06-04T00:34:20;13.80;99.90
2012;DHT22;1009;51.436;6.972;2023-06-04T00:36:47;13.70;99.90
2012;DHT22;1009;51.436;6.972;2023-06-04T00:39:13;13.80;99.90
2012;DHT22;1009;51.436;6.972;2023-06-04T00:41:42;13.90;99.90
2012;DHT22;1009;51.436;6.972;2023-06-04T00:44:08;13.80;99.90
2012;DHT22;1009;51.436;6.972;2023-06-04T00:46:37;13.80;99.90
2012;DHT22;1009;51.436;6.972;2023-06-04T00:49:04;13.80;99.90
2012;DHT22;1009;51.436;6.972;2023-06-04T00:51:32;13.90;99.90
2012;DHT22;1009;51.436;6.972;2023-06-04T00:53:59;14.00;99.90
2012;DHT22;1009;51.436;6.972;2023-06-04T00:56:34;14.00;99.90
2012;DHT22;1009;51.436;6.972;2023-06-04T00:59:02;13.80;99.90
2012;DHT22;1009;51.436;6.972;2023-06-04T01:01:34;13.70;99.90
2012;DHT22;1009;51.436;6.972;2023-06-04T01:04:08;13.70;99.90
2012;DHT22;1009;51.436;6.972;2023-06-04T01:06:42;13.70;99.90
2012;DHT22;1009;51.436;6.972;2023-06-04T01:09:10;13.60;99.90
2012;DHT22;1009;51.436;6.972;2023-06-04T01:11:38;13.50;99.90
2012;DHT22;1009;51.436;6.972;2023-06-04T01:14:08;13.50;99.90
2012;DHT22;1009;51.436;6.972;2023-06-04T01:16:39;13.60;99.90
2012;DHT22;1009;51.436;6.972;2023-06-04T01:19:13;13.50;99.90
2012;DHT22;1009;51.436;6.972;2023-06-04T01:21:48;13.50;99.90
2012;DHT22;1009;51.436;6.972;2023-06-04T01:24:17;13.50;99.90
2012;DHT22;1009;51.436;6.972;2023-06-04T01:26:48;13.60;99.90
2012;DHT22;1009;51.436;6.972;2023-06-04T01:29:18;13.60;99.90
2012;DHT22;1009;51.436;6.972;2023-06-04T01:31:45;13.70;99.90
2012;DHT22;1009;51.436;6.972;2023-06-04T01:34:11;13.70;99.90
2012;DHT22;1009;51.436;6.972;2023-06-04T01:36:38;13.70;99.90
2012;DHT22;1009;51.436;6.972;2023-06-04T01:39:05;13.70;99.90
2012;DHT22;1009;51.436;6.972;2023-06-04T01:41:35;13.60;99.90
2012;DHT22;1009;51.436;6.972;2023-06-04T01:44:02;13.60;99.90
2012;DHT22;1009;51.436;6.972;2023-06-04T01:46:30;13.60;99.90
2012;DHT22;1009;51.436;6.972;2023-06-04T01:48:56;13.50;99.90
2012;DHT22;1009;51.436;6.972;2023-06-04T01:51:23;13.40;99.90
2012;DHT22;1009;51.436;6.972;2023-06-04T01:53:50;13.30;99.90
2012;DHT22;1009;51.436;6.972;2023-06-04T01:56:16;13.20;99.90
2012;DHT22;1009;51.436;6.972;2023-06-04T01:58:46;13.20;99.90
2012;DHT22;1009;51.436;6.972;2023-06-04T02:01:13;13.20;99.90
2012;DHT22;1009;51.436;6.972;2023-06-04T02:03:43;13.30;99.90
2012;DHT22;1009;51.436;6.972;2023-06-04T02:06:10;13.30;99.90
2012;DHT22;1009;51.436;6.972;2023-06-04T02:08:37;13.40;99.90
2012;DHT22;1009;51.436;6.972;2023-06-04T02:11:05;13.50;99.90
2012;DHT22;1009;51.436;6.972;2023-06-04T02:13:32;13.50;99.90
2012;DHT22;1009;51.436;6.972;2023-06-04T02:15:59;13.50;99.90
2012;DHT22;1009;51.436;6.972;2023-06-04T02:18:26;13.50;99.90
2012;DHT22;1009;51.436;6.972;2023-06-04T02:20:56;13.40;99.90
2012;DHT22;1009;51.436;6.972;2023-06-04T02:23:23;13.40;99.90
2012;DHT22;1009;51.436;6.972;2023-06-04T02:25:50;13.30;99.90
2012;DHT22;1009;51.436;6.972;2023-06-04T02:28:17;13.30;99.90
2012;DHT22;1009;51.436;6.972;2023-06-04T02:30:44;13.30;99.90
2012;DHT22;1009;51.436;6.972;2023-06-04T02:33:12;13.30;99.90
2012;DHT22;1009;51.436;6.972;2023-06-04T02:35:39;13.20;99.90
2012;DHT22;1009;51.436;6.972;2023-06-04T02:38:07;13.20;99.90
2012;DHT22;1009;51.436;6.972;2023-06-04T02:40:34;13.20;99.90
2012;DHT22;1009;51.436;6.972;2023-06-04T02:43:01;13.20;99.90
2012;DHT22;1009;51.436;6.972;2023-06-04T02:45:27;13.10;99.90
2012;DHT22;1009;51.436;6.972;2023-06-04T02:47:54;13.10;99.90
2012;DHT22;1009;51.436;6.972;2023-06-04T02:50:21;13.20;99.90
2012;DHT22;1009;51.436;6.972;2023-06-04T02:52:48;13.10;99.90
2012;DHT22;1009;51.436;6.972;2023-06-04T02:55:16;13.10;99.90
2012;DHT22;1009;51.436;6.972;2023-06-04T02:57:43;13.10;99.90
2012;DHT22;1009;51.436;6.972;2023-06-04T03:00:10;13.00;99.90
2012;DHT22;1009;51.436;6.972;2023-06-04T03:02:42;13.00;99.90
2012;DHT22;1009;51.436;6.972;2023-06-04T03:05:10;13.00;99.90
2012;DHT22;1009;51.436;6.972;2023-06-04T03:07:38;12.90;99.90
2012;DHT22;1009;51.436;6.972;2023-06-04T03:10:07;12.80;99.90
2012;DHT22;1009;51.436;6.972;2023-06-04T03:12:35;12.80;99.90
2012;DHT22;1009;51.436;6.972;2023-06-04T03:15:03;12.70;99.90
2012;DHT22;1009;51.436;6.972;2023-06-04T03:17:33;12.70;99.90
2012;DHT22;1009;51.436;6.972;2023-06-04T03:20:02;12.70;99.90
2012;DHT22;1009;51.436;6.972;2023-06-04T03:22:35;12.60;99.90
2012;DHT22;1009;51.436;6.972;2023-06-04T03:25:06;12.60;99.90
2012;DHT22;1009;51.436;6.972;2023-06-04T03:27:34;12.60;99.90
2012;DHT22;1009;51.436;6.972;2023-06-04T03:30:01;12.50;99.90
2012;DHT22;1009;51.436;6.972;2023-06-04T03:32:28;12.60;99.90
2012;DHT22;1009;51.436;6.972;2023-06-04T03:34:55;12.50;99.90
2012;DHT22;1009;51.436;6.972;2023-06-04T03:37:22;12.50;99.90
2012;DHT22;1009;51.436;6.972;2023-06-04T03:39:48;12.50;99.90
2012;DHT22;1009;51.436;6.972;2023-06-04T03:42:15;12.50;99.90
2012;DHT22;1009;51.436;6.972;2023-06-04T03:44:43;12.40;99.90
2012;DHT22;1009;51.436;6.972;2023-06-04T03:47:11;12.40;99.90
2012;DHT22;1009;51.436;6.972;2023-06-04T03:49:38;12.40;99.90
2012;DHT22;1009;51.436;6.972;2023-06-04T03:52:05;12.40;99.90
2012;DHT22;1009;51.436;6.972;2023-06-04T03:54:31;12.30;99.90
2012;DHT22;1009;51.436;6.972;2023-06-04T03:56:58;12.40;99.90
2012;DHT22;1009;51.436;6.972;2023-06-04T03:59:25;12.30;99.90
2012;DHT22;1009;51.436;6.972;2023-06-04T04:01:53;12.30;99.90
2012;DHT22;1009;51.436;6.972;2023-06-04T04:04:20;12.40;99.90
2012;DHT22;1009;51.436;6.972;2023-06-04T04:06:47;12.40;99.90
2012;DHT22;1009;51.436;6.972;2023-06-04T04:09:14;12.40;99.90
2012;DHT22;1009;51.436;6.972;2023-06-04T04:11:41;12.40;99.90
2012;DHT22;1009;51.436;6.972;2023-06-04T04:14:08;12.40;99.90
2012;DHT22;1009;51.436;6.972;2023-06-04T04:16:34;12.40;99.90
2012;DHT22;1009;51.436;6.972;2023-06-04T04:19:05;12.40;99.90
2012;DHT22;1009;51.436;6.972;2023-06-04T04:21:33;12.30;99.90
2012;DHT22;1009;51.436;6.972;2023-06-04T04:24:22;12.40;99.90
2012;DHT22;1009;51.436;6.972;2023-06-04T04:26:48;12.40;99.90
2012;DHT22;1009;51.436;6.972;2023-06-04T04:29:18;12.50;99.90
2012;DHT22;1009;51.436;6.972;2023-06-04T04:31:48;12.50;99.90
2012;DHT22;1009;51.436;6.972;2023-06-04T04:34:16;12.40;99.90
2012;DHT22;1009;51.436;6.972;2023-06-04T04:36:46;12.40;99.90
2012;DHT22;1009;51.436;6.972;2023-06-04T04:39:17;12.40;99.90
2012;DHT22;1009;51.436;6.972;2023-06-04T04:41:44;12.50;99.90
2012;DHT22;1009;51.436;6.972;2023-06-04T04:44:11;12.50;99.90
2012;DHT22;1009;51.436;6.972;2023-06-04T04:46:37;12.60;99.90
2012;DHT22;1009;51.436;6.972;2023-06-04T04:49:04;12.70;99.90
2012;DHT22;1009;51.436;6.972;2023-06-04T04:51:32;12.70;99.90
2012;DHT22;1009;51.436;6.972;2023-06-04T04:53:59;12.80;99.90
2012;DHT22;1009;51.436;6.972;2023-06-04T04:56:26;12.80;99.90
2012;DHT22;1009;51.436;6.972;2023-06-04T04:58:53;12.80;99.90
2012;DHT22;1009;51.436;6.972;2023-06-04T05:01:21;12.80;99.90
2012;DHT22;1009;51.436;6.972;2023-06-04T05:03:49;12.90;99.90
2012;DHT22;1009;51.436;6.972;2023-06-04T05:06:16;13.00;99.90
2012;DHT22;1009;51.436;6.972;2023-06-04T05:08:44;13.10;99.90
2012;DHT22;1009;51.436;6.972;2023-06-04T05:11:11;13.10;99.90
2012;DHT22;1009;51.436;6.972;2023-06-04T05:13:37;13.20;99.90
2012;DHT22;1009;51.436;6.972;2023-06-04T05:16:04;13.30;99.90
2012;DHT22;1009;51.436;6.972;2023-06-04T05:18:32;13.40;99.90
2012;DHT22;1009;51.436;6.972;2023-06-04T05:21:00;13.50;99.90
2012;DHT22;1009;51.436;6.972;2023-06-04T05:23:28;13.40;99.90
2012;DHT22;1009;51.436;6.972;2023-06-04T05:25:56;13.50;99.90
2012;DHT22;1009;51.436;6.972;2023-06-04T05:28:23;13.60;99.90
2012;DHT22;1009;51.436;6.972;2023-06-04T05:30:51;13.70;99.90
2012;DHT22;1009;51.436;6.972;2023-06-04T05:33:24;13.80;99.90
2012;DHT22;1009;51.436;6.972;2023-06-04T05:35:51;13.80;99.90
2012;DHT22;1009;51.436;6.972;2023-06-04T05:38:19;13.90;99.90
2012;DHT22;1009;51.436;6.972;2023-06-04T05:40:46;14.00;99.90
2012;DHT22;1009;51.436;6.972;2023-06-04T05:43:14;14.10;99.90
2012;DHT22;1009;51.436;6.972;2023-06-04T05:45:41;14.10;99.90
2012;DHT22;1009;51.436;6.972;2023-06-04T05:48:08;14.20;99.90
2012;DHT22;1009;51.436;6.972;2023-06-04T05:50:34;14.30;99.90
2012;DHT22;1009;51.436;6.972;2023-06-04T05:53:01;14.30;99.90
2012;DHT22;1009;51.436;6.972;2023-06-04T05:55:28;14.40;99.90
2012;DHT22;1009;51.436;6.972;2023-06-04T05:57:55;14.40;99.90
2012;DHT22;1009;51.436;6.972;2023-06-04T06:00:23;14.60;99.90
2012;DHT22;1009;51.436;6.972;2023-06-04T06:02:50;14.70;99.90
2012;DHT22;1009;51.436;6.972;2023-06-04T06:05:18;14.70;99.90
2012;DHT22;1009;51.436;6.972;2023-06-04T06:07:45;14.70;99.90
2012;DHT22;1009;51.436;6.972;2023-06-04T06:10:12;14.90;99.90
2012;DHT22;1009;51.436;6.972;2023-06-04T06:12:39;14.90;99.90
2012;DHT22;1009;51.436;6.972;2023-06-04T06:15:07;15.20;99.90
2012;DHT22;1009;51.436;6.972;2023-06-04T06:17:35;15.40;99.90
2012;DHT22;1009;51.436;6.972;2023-06-04T06:20:02;15.40;99.90
2012;DHT22;1009;51.436;6.972;2023-06-04T06:22:32;15.60;99.90
2012;DHT22;1009;51.436;6.972;2023-06-04T06:24:59;15.80;99.90
2012;DHT22;1009;51.436;6.972;2023-06-04T06:27:26;15.80;99.90
2012;DHT22;1009;51.436;6.972;2023-06-04T06:29:53;15.90;99.90
2012;DHT22;1009;51.436;6.972;2023-06-04T06:32:19;16.10;99.90
2012;DHT22;1009;51.436;6.972;2023-06-04T06:34:47;16.10;99.90
2012;DHT22;1009;51.436;6.972;2023-06-04T06:37:14;16.30;99.90
2012;DHT22;1009;51.436;6.972;2023-06-04T06:39:41;16.30;99.90
2012;DHT22;1009;51.436;6.972;2023-06-04T06:42:08;16.30;99.90
2012;DHT22;1009;51.436;6.972;2023-06-04T06:44:35;16.40;99.90
2012;DHT22;1009;51.436;6.972;2023-06-04T06:47:01;16.30;99.90
2012;DHT22;1009;51.436;6.972;2023-06-04T06:49:28;16.40;99.90
2012;DHT22;1009;51.436;6.972;2023-06-04T06:51:56;16.60;99.90
2012;DHT22;1009;51.436;6.972;2023-06-04T06:54:23;16.80;99.90
2012;DHT22;1009;51.436;6.972;2023-06-04T06:56:50;16.90;99.90
2012;DHT22;1009;51.436;6.972;2023-06-04T06:59:16;17.10;99.90
2012;DHT22;1009;51.436;6.972;2023-06-04T07:01:43;17.20;99.90
2012;DHT22;1009;51.436;6.972;2023-06-04T07:04:10;17.40;99.90
2012;DHT22;1009;51.436;6.972;2023-06-04T07:06:37;17.50;99.90
2012;DHT22;1009;51.436;6.972;2023-06-04T07:09:05;17.70;99.90
2012;DHT22;1009;51.436;6.972;2023-06-04T07:11:33;17.90;99.90
2012;DHT22;1009;51.436;6.972;2023-06-04T07:13:59;18.10;99.90
2012;DHT22;1009;51.436;6.972;2023-06-04T07:16:27;18.20;99.90
2012;DHT22;1009;51.436;6.972;2023-06-04T07:18:54;18.20;99.90
2012;DHT22;1009;51.436;6.972;2023-06-04T07:21:21;18.30;99.90
2012;DHT22;1009;51.436;6.972;2023-06-04T07:23:49;18.40;99.90
2012;DHT22;1009;51.436;6.972;2023-06-04T07:26:20;18.40;99.90
2012;DHT22;1009;51.436;6.972;2023-06-04T07:28:50;18.30;99.90
2012;DHT22;1009;51.436;6.972;2023-06-04T07:31:32;18.40;99.90
2012;DHT22;1009;51.436;6.972;2023-06-04T07:33:59;18.60;99.90
2012;DHT22;1009;51.436;6.972;2023-06-04T07:36:26;18.80;99.90
2012;DHT22;1009;51.436;6.972;2023-06-04T07:38:53;18.80;99.90
2012;DHT22;1009;51.436;6.972;2023-06-04T07:41:21;18.80;99.90
2012;DHT22;1009;51.436;6.972;2023-06-04T07:43:47;18.80;99.90
2012;DHT22;1009;51.436;6.972;2023-06-04T07:46:14;18.90;99.90
2012;DHT22;1009;51.436;6.972;2023-06-04T07:48:44;18.80;99.90
2012;DHT22;1009;51.436;6.972;2023-06-04T07:51:12;18.70;99.90
2012;DHT22;1009;51.436;6.972;2023-06-04T07:53:42;18.80;99.90
2012;DHT22;1009;51.436;6.972;2023-06-04T07:56:10;18.90;99.90
2012;DHT22;1009;51.436;6.972;2023-06-04T07:58:38;19.10;99.90
2012;DHT22;1009;51.436;6.972;2023-06-04T08:01:06;19.10;99.00
2012;DHT22;1009;51.436;6.972;2023-06-04T08:03:33;18.90;99.00
2012;DHT22;1009;51.436;6.972;2023-06-04T08:06:00;18.80;96.90
2012;DHT22;1009;51.436;6.972;2023-06-04T08:08:27;18.80;98.90
2012;DHT22;1009;51.436;6.972;2023-06-04T08:10:53;19.00;98.10
2012;DHT22;1009;51.436;6.972;2023-06-04T08:13:20;19.10;99.70
2012;DHT22;1009;51.436;6.972;2023-06-04T08:15:48;19.30;99.20
2012;DHT22;1009;51.436;6.972;2023-06-04T08:18:15;19.30;98.00
2012;DHT22;1009;51.436;6.972;2023-06-04T08:20:42;19.50;98.10
2012;DHT22;1009;51.436;6.972;2023-06-04T08:23:08;19.70;96.10
2012;DHT22;1009;51.436;6.972;2023-06-04T08:25:35;19.70;94.60
2012;DHT22;1009;51.436;6.972;2023-06-04T08:28:02;19.70;94.30
2012;DHT22;1009;51.436;6.972;2023-06-04T08:30:29;19.90;94.30
2012;DHT22;1009;51.436;6.972;2023-06-04T08:32:57;20.10;95.00
2012;DHT22;1009;51.436;6.972;2023-06-04T08:35:24;20.20;93.20
2012;DHT22;1009;51.436;6.972;2023-06-04T08:37:50;20.10;92.60
2012;DHT22;1009;51.436;6.972;2023-06-04T08:40:17;20.10;92.50
2012;DHT22;1009;51.436;6.972;2023-06-04T08:42:44;20.40;91.60
2012;DHT22;1009;51.436;6.972;2023-06-04T08:45:12;20.60;92.90
2012;DHT22;1009;51.436;6.972;2023-06-04T08:47:43;20.50;91.00
2012;DHT22;1009;51.436;6.972;2023-06-04T08:50:12;20.80;91.90
2012;DHT22;1009;51.436;6.972;2023-06-04T08:52:40;20.80;91.70
2012;DHT22;1009;51.436;6.972;2023-06-04T08:55:08;20.80;92.10
2012;DHT22;1009;51.436;6.972;2023-06-04T08:57:38;20.90;90.50
2012;DHT22;1009;51.436;6.972;2023-06-04T09:00:06;21.00;92.20
2012;DHT22;1009;51.436;6.972;2023-06-04T09:02:35;21.20;91.20
2012;DHT22;1009;51.436;6.972;2023-06-04T09:05:04;20.90;85.30
2012;DHT22;1009;51.436;6.972;2023-06-04T09:07:35;21.00;86.20
2012;DHT22;1009;51.436;6.972;2023-06-04T09:10:04;21.10;86.20
2012;DHT22;1009;51.436;6.972;2023-06-04T09:12:36;21.10;85.20
2012;DHT22;1009;51.436;6.972;2023-06-04T09:15:03;21.00;80.10
2012;DHT22;1009;51.436;6.972;2023-06-04T09:17:30;21.00;79.80
2012;DHT22;1009;51.436;6.972;2023-06-04T09:19:56;21.20;87.00
2012;DHT22;1009;51.436;6.972;2023-06-04T09:22:33;21.50;84.10
2012;DHT22;1009;51.436;6.972;2023-06-04T09:25:01;21.70;83.50
2012;DHT22;1009;51.436;6.972;2023-06-04T09:27:37;21.60;80.30
2012;DHT22;1009;51.436;6.972;2023-06-04T09:30:05;21.60;83.30
2012;DHT22;1009;51.436;6.972;2023-06-04T09:32:34;21.60;76.50
2012;DHT22;1009;51.436;6.972;2023-06-04T09:35:09;21.50;74.50
2012;DHT22;1009;51.436;6.972;2023-06-04T09:37:38;21.70;78.60
2012;DHT22;1009;51.436;6.972;2023-06-04T09:40:06;21.90;80.50
2012;DHT22;1009;51.436;6.972;2023-06-04T09:42:42;22.00;73.20
2012;DHT22;1009;51.436;6.972;2023-06-04T09:45:09;21.80;70.40
2012;DHT22;1009;51.436;6.972;2023-06-04T09:47:40;22.20;75.20
2012;DHT22;1009;51.436;6.972;2023-06-04T09:50:08;22.60;74.60
2012;DHT22;1009;51.436;6.972;2023-06-04T09:52:35;22.60;75.60
2012;DHT22;1009;51.436;6.972;2023-06-04T09:55:15;22.50;75.70
2012;DHT22;1009;51.436;6.972;2023-06-04T09:57:46;22.10;70.40
2012;DHT22;1009;51.436;6.972;2023-06-04T10:00:15;22.00;68.50
2012;DHT22;1009;51.436;6.972;2023-06-04T10:02:43;22.00;66.50
2012;DHT22;1009;51.436;6.972;2023-06-04T10:05:11;22.10;69.90
2012;DHT22;1009;51.436;6.972;2023-06-04T10:07:39;22.40;72.20
2012;DHT22;1009;51.436;6.972;2023-06-04T10:10:11;23.00;68.90
2012;DHT22;1009;51.436;6.972;2023-06-04T10:12:42;23.40;69.40
2012;DHT22;1009;51.436;6.972;2023-06-04T10:15:11;23.40;69.70
2012;DHT22;1009;51.436;6.972;2023-06-04T10:17:39;23.00;62.70
2012;DHT22;1009;51.436;6.972;2023-06-04T10:20:07;22.90;63.30
2012;DHT22;1009;51.436;6.972;2023-06-04T10:22:35;22.50;61.80
2012;DHT22;1009;51.436;6.972;2023-06-04T10:25:03;22.70;63.30
2012;DHT22;1009;51.436;6.972;2023-06-04T10:27:32;22.50;61.80
2012;DHT22;1009;51.436;6.972;2023-06-04T10:30:01;22.30;61.40
2012;DHT22;1009;51.436;6.972;2023-06-04T10:32:29;22.10;61.00
2012;DHT22;1009;51.436;6.972;2023-06-04T10:34:56;22.30;61.80
2012;DHT22;1009;51.436;6.972;2023-06-04T10:37:27;22.80;66.00
2012;DHT22;1009;51.436;6.972;2023-06-04T10:39:56;22.90;63.60
2012;DHT22;1009;51.436;6.972;2023-06-04T10:42:26;22.90;61.70
2012;DHT22;1009;51.436;6.972;2023-06-04T10:44:55;23.10;62.50
2012;DHT22;1009;51.436;6.972;2023-06-04T10:47:22;23.70;59.90
2012;DHT22;1009;51.436;6.972;2023-06-04T10:49:50;24.00;60.30
2012;DHT22;1009;51.436;6.972;2023-06-04T10:52:17;24.10;61.20
2012;DHT22;1009;51.436;6.972;2023-06-04T10:54:45;24.40;59.60
2012;DHT22;1009;51.436;6.972;2023-06-04T10:57:15;24.70;60.00
2012;DHT22;1009;51.436;6.972;2023-06-04T10:59:54;24.90;61.30
2012;DHT22;1009;51.436;6.972;2023-06-04T11:02:21;24.50;57.10
2012;DHT22;1009;51.436;6.972;2023-06-04T11:04:59;24.20;58.90
2012;DHT22;1009;51.436;6.972;2023-06-04T11:07:40;24.10;58.10
2012;DHT22;1009;51.436;6.972;2023-06-04T11:10:09;23.70;57.20
2012;DHT22;1009;51.436;6.972;2023-06-04T11:12:42;23.50;58.00
2012;DHT22;1009;51.436;6.972;2023-06-04T11:15:10;23.80;59.90
2012;DHT22;1009;51.436;6.972;2023-06-04T11:17:37;24.30;59.70
2012;DHT22;1009;51.436;6.972;2023-06-04T11:20:16;24.50;59.50
2012;DHT22;1009;51.436;6.972;2023-06-04T11:22:50;24.00;57.30
2012;DHT22;1009;51.436;6.972;2023-06-04T11:25:17;24.00;58.30
2012;DHT22;1009;51.436;6.972;2023-06-04T11:27:45;24.20;57.90
2012;DHT22;1009;51.436;6.972;2023-06-04T11:30:14;23.90;58.20
2012;DHT22;1009;51.436;6.972;2023-06-04T11:32:41;23.90;56.70
2012;DHT22;1009;51.436;6.972;2023-06-04T11:35:08;24.20;59.90
2012;DHT22;1009;51.436;6.972;2023-06-04T11:37:37;24.50;52.50
2012;DHT22;1009;51.436;6.972;2023-06-04T11:40:15;24.40;51.20
2012;DHT22;1009;51.436;6.972;2023-06-04T11:42:42;24.50;50.70
2012;DHT22;1009;51.436;6.972;2023-06-04T11:45:10;24.60;50.50
2012;DHT22;1009;51.436;6.972;2023-06-04T11:47:38;24.90;53.80
2012;DHT22;1009;51.436;6.972;2023-06-04T11:50:06;24.90;49.60
2012;DHT22;1009;51.436;6.972;2023-06-04T11:52:33;25.30;51.00
2012;DHT22;1009;51.436;6.972;2023-06-04T11:55:00;25.50;50.40
2012;DHT22;1009;51.436;6.972;2023-06-04T11:57:27;25.70;50.60
2012;DHT22;1009;51.436;6.972;2023-06-04T11:59:54;25.50;50.10
2012;DHT22;1009;51.436;6.972;2023-06-04T12:02:21;25.20;48.80
2012;DHT22;1009;51.436;6.972;2023-06-04T12:04:49;24.80;49.70
2012;DHT22;1009;51.436;6.972;2023-06-04T12:07:19;24.70;49.70
2012;DHT22;1009;51.436;6.972;2023-06-04T12:09:49;24.50;50.60
2012;DHT22;1009;51.436;6.972;2023-06-04T12:12:22;24.60;49.90
2012;DHT22;1009;51.436;6.972;2023-06-04T12:14:57;24.70;52.20
2012;DHT22;1009;51.436;6.972;2023-06-04T12:17:24;25.10;52.10
2012;DHT22;1009;51.436;6.972;2023-06-04T12:19:52;25.30;53.80
2012;DHT22;1009;51.436;6.972;2023-06-04T12:22:20;25.30;52.00
2012;DHT22;1009;51.436;6.972;2023-06-04T12:24:47;25.30;49.50
2012;DHT22;1009;51.436;6.972;2023-06-04T12:27:14;26.00;52.20
2012;DHT22;1009;51.436;6.972;2023-06-04T12:29:41;25.50;49.50
2012;DHT22;1009;51.436;6.972;2023-06-04T12:32:09;25.70;51.30
2012;DHT22;1009;51.436;6.972;2023-06-04T12:34:37;25.60;48.20
2012;DHT22;1009;51.436;6.972;2023-06-04T12:37:05;25.70;48.80
2012;DHT22;1009;51.436;6.972;2023-06-04T12:39:33;25.00;47.60
2012;DHT22;1009;51.436;6.972;2023-06-04T12:42:00;24.70;47.30
2012;DHT22;1009;51.436;6.972;2023-06-04T12:44:26;24.40;47.50
2012;DHT22;1009;51.436;6.972;2023-06-04T13:01:16;24.90;48.10
2012;DHT22;1009;51.436;6.972;2023-06-04T13:03:43;25.10;47.60
2012;DHT22;1009;51.436;6.972;2023-06-04T13:06:09;25.00;47.00
2012;DHT22;1009;51.436;6.972;2023-06-04T13:08:36;25.20;48.10
2012;DHT22;1009;51.436;6.972;2023-06-04T13:11:03;25.60;46.10
2012;DHT22;1009;51.436;6.972;2023-06-04T13:13:31;25.70;46.20
2012;DHT22;1009;51.436;6.972;2023-06-04T13:15:57;25.70;47.70
2012;DHT22;1009;51.436;6.972;2023-06-04T13:18:26;25.60;48.20
2012;DHT22;1009;51.436;6.972;2023-06-04T13:20:53;25.80;47.80
2012;DHT22;1009;51.436;6.972;2023-06-04T13:23:19;25.40;46.10
2012;DHT22;1009;51.436;6.972;2023-06-04T13:25:46;25.20;45.80
2012;DHT22;1009;51.436;6.972;2023-06-04T13:28:13;25.60;49.10
2012;DHT22;1009;51.436;6.972;2023-06-04T13:30:41;25.70;47.90
2012;DHT22;1009;51.436;6.972;2023-06-04T13:33:08;25.40;45.90
2012;DHT22;1009;51.436;6.972;2023-06-04T13:35:36;25.30;46.40
2012;DHT22;1009;51.436;6.972;2023-06-04T13:38:04;25.20;45.60
2012;DHT22;1009;51.436;6.972;2023-06-04T13:40:32;25.10;45.10
2012;DHT22;1009;51.436;6.972;2023-06-04T13:43:00;25.30;47.00
2012;DHT22;1009;51.436;6.972;2023-06-04T13:45:26;25.60;46.40
2012;DHT22;1009;51.436;6.972;2023-06-04T13:47:54;25.80;46.00
2012;DHT22;1009;51.436;6.972;2023-06-04T13:50:25;26.00;43.20
2012;DHT22;1009;51.436;6.972;2023-06-04T13:52:54;26.00;45.90
2012;DHT22;1009;51.436;6.972;2023-06-04T13:55:21;25.70;44.50
2012;DHT22;1009;51.436;6.972;2023-06-04T13:57:48;25.60;44.20
2012;DHT22;1009;51.436;6.972;2023-06-04T14:00:15;25.80;44.70
2012;DHT22;1009;51.436;6.972;2023-06-04T14:02:42;25.80;45.30
2012;DHT22;1009;51.436;6.972;2023-06-04T14:05:09;25.80;44.40
2012;DHT22;1009;51.436;6.972;2023-06-04T14:07:35;26.00;45.30
2012;DHT22;1009;51.436;6.972;2023-06-04T14:10:04;26.10;44.80
2012;DHT22;1009;51.436;6.972;2023-06-04T14:12:31;25.80;43.50
2012;DHT22;1009;51.436;6.972;2023-06-04T14:14:58;25.90;43.10
2012;DHT22;1009;51.436;6.972;2023-06-04T14:17:24;26.00;42.60
2012;DHT22;1009;51.436;6.972;2023-06-04T14:19:51;26.10;42.00
2012;DHT22;1009;51.436;6.972;2023-06-04T14:22:18;26.10;43.50
2012;DHT22;1009;51.436;6.972;2023-06-04T14:24:45;25.80;43.10
2012;DHT22;1009;51.436;6.972;2023-06-04T14:27:13;25.10;43.40
2012;DHT22;1009;51.436;6.972;2023-06-04T14:29:40;24.70;43.70
2012;DHT22;1009;51.436;6.972;2023-06-04T14:32:07;25.00;43.70
2012;DHT22;1009;51.436;6.972;2023-06-04T14:34:33;25.50;43.70
2012;DHT22;1009;51.436;6.972;2023-06-04T14:37:00;25.80;43.40
2012;DHT22;1009;51.436;6.972;2023-06-04T14:39:27;25.80;42.10
2012;DHT22;1009;51.436;6.972;2023-06-04T14:41:54;25.10;42.90
2012;DHT22;1009;51.436;6.972;2023-06-04T14:44:22;24.90;43.40
2012;DHT22;1009;51.436;6.972;2023-06-04T14:46:49;24.60;44.30
2012;DHT22;1009;51.436;6.972;2023-06-04T14:49:17;24.50;45.00
2012;DHT22;1009;51.436;6.972;2023-06-04T14:51:44;24.50;44.40
2012;DHT22;1009;51.436;6.972;2023-06-04T14:54:11;24.30;44.30
2012;DHT22;1009;51.436;6.972;2023-06-04T14:56:38;24.00;43.50
2012;DHT22;1009;51.436;6.972;2023-06-04T14:59:04;23.80;43.20
2012;DHT22;1009;51.436;6.972;2023-06-04T15:01:35;23.80;44.50
2012;DHT22;1009;51.436;6.972;2023-06-04T15:04:02;23.80;44.70
2012;DHT22;1009;51.436;6.972;2023-06-04T15:06:29;24.00;45.70
2012;DHT22;1009;51.436;6.972;2023-06-04T15:08:55;24.00;43.50
2012;DHT22;1009;51.436;6.972;2023-06-04T15:11:22;23.90;44.90
2012;DHT22;1009;51.436;6.972;2023-06-04T15:13:49;23.80;45.70
2012;DHT22;1009;51.436;6.972;2023-06-04T15:16:16;23.90;45.30
2012;DHT22;1009;51.436;6.972;2023-06-04T15:18:44;23.70;43.60
2012;DHT22;1009;51.436;6.972;2023-06-04T15:21:11;23.50;44.90
2012;DHT22;1009;51.436;6.972;2023-06-04T15:23:37;23.30;43.60
2012;DHT22;1009;51.436;6.972;2023-06-04T15:26:04;23.50;45.80
2012;DHT22;1009;51.436;6.972;2023-06-04T15:28:31;23.60;45.30
2012;DHT22;1009;51.436;6.972;2023-06-04T15:30:58;23.40;44.70
2012;DHT22;1009;51.436;6.972;2023-06-04T15:33:24;23.20;45.00
2012;DHT22;1009;51.436;6.972;2023-06-04T15:35:53;23.20;46.60
2012;DHT22;1009;51.436;6.972;2023-06-04T15:38:20;23.30;45.20
2012;DHT22;1009;51.436;6.972;2023-06-04T15:40:47;23.30;46.20
2012;DHT22;1009;51.436;6.972;2023-06-04T15:43:13;23.30;46.40
2012;DHT22;1009;51.436;6.972;2023-06-04T15:45:41;23.20;46.10
2012;DHT22;1009;51.436;6.972;2023-06-04T15:48:10;23.00;46.30
2012;DHT22;1009;51.436;6.972;2023-06-04T15:50:37;23.00;47.20
2012;DHT22;1009;51.436;6.972;2023-06-04T15:53:05;23.10;47.40
2012;DHT22;1009;51.436;6.972;2023-06-04T15:55:32;23.00;46.30
2012;DHT22;1009;51.436;6.972;2023-06-04T15:57:58;23.00;45.60
2012;DHT22;1009;51.436;6.972;2023-06-04T16:00:25;22.80;45.80
2012;DHT22;1009;51.436;6.972;2023-06-04T16:02:52;22.80;45.70
2012;DHT22;1009;51.436;6.972;2023-06-04T16:05:19;22.80;46.70
2012;DHT22;1009;51.436;6.972;2023-06-04T16:07:46;22.90;48.60
2012;DHT22;1009;51.436;6.972;2023-06-04T16:10:14;22.90;49.00
2012;DHT22;1009;51.436;6.972;2023-06-04T16:12:40;22.80;49.00
2012;DHT22;1009;51.436;6.972;2023-06-04T16:15:08;22.80;47.90
2012;DHT22;1009;51.436;6.972;2023-06-04T16:17:35;22.80;48.40
2012;DHT22;1009;51.436;6.972;2023-06-04T16:20:01;22.60;48.60
2012;DHT22;1009;51.436;6.972;2023-06-04T16:22:28;22.70;48.10